createdAt,value
2017-10-19T00:00:08.935Z,99.90
2017-10-19T00:02:36.509Z,99.90
2017-10-19T00:05:04.119Z,99.90
2017-10-19T00:07:31.712Z,99.90
2017-10-19T00:09:59.288Z,99.90
2017-10-19T00:12:26.882Z,99.90
2017-10-19T00:14:54.451Z,99.90
2017-10-19T00:17:22.021Z,99.90
2017-10-19T00:19:49.628Z,99.90
2017-10-19T00:22:17.195Z,99.90
2017-10-19T00:24:44.790Z,99.90
2017-10-19T00:27:13.858Z,99.90
2017-10-19T00:29:41.468Z,99.90
2017-10-19T00:32:09.799Z,99.90
2017-10-19T00:34:37.382Z,99.90
2017-10-19T00:37:04.980Z,99.90
2017-10-19T00:39:32.557Z,99.90
2017-10-19T00:42:00.159Z,99.90
2017-10-19T00:44:27.733Z,99.90
2017-10-19T00:46:56.091Z,99.90
2017-10-19T00:49:23.664Z,99.90
2017-10-19T00:51:52.039Z,99.90
2017-10-19T00:54:20.403Z,99.90
2017-10-19T00:56:48.732Z,99.90
2017-10-19T00:59:16.328Z,99.90
2017-10-19T01:01:43.942Z,99.90
2017-10-19T01:04:11.663Z,99.90
2017-10-19T01:06:40.029Z,99.90
2017-10-19T01:09:07.602Z,99.90
2017-10-19T01:11:35.198Z,99.90
2017-10-19T01:14:02.771Z,99.90
2017-10-19T01:16:30.355Z,99.90
2017-10-19T01:18:57.920Z,99.90
2017-10-19T01:21:25.523Z,99.90
2017-10-19T01:23:53.104Z,99.90
2017-10-19T01:26:20.713Z,99.90
2017-10-19T01:28:49.047Z,99.90
2017-10-19T01:31:16.618Z,99.90
2017-10-19T01:33:44.217Z,99.90
2017-10-19T01:36:12.568Z,99.90
2017-10-19T01:38:40.208Z,99.90
2017-10-19T01:41:07.787Z,99.90
2017-10-19T01:43:35.530Z,99.90
2017-10-19T01:46:03.123Z,99.90
2017-10-19T01:48:31.475Z,99.90
2017-10-19T01:50:59.155Z,99.90
2017-10-19T01:53:26.771Z,99.90
2017-10-19T01:55:54.340Z,99.90
2017-10-19T01:58:21.943Z,99.90
2017-10-19T02:00:50.411Z,99.90
2017-10-19T02:03:17.984Z,99.90
2017-10-19T02:05:46.355Z,99.90
2017-10-19T02:08:14.793Z,99.90
2017-10-19T02:10:42.439Z,99.90
2017-10-19T02:13:10.048Z,99.90
2017-10-19T02:15:37.667Z,99.90
2017-10-19T02:18:05.234Z,99.90
2017-10-19T02:20:32.848Z,99.90
2017-10-19T02:23:00.420Z,99.90
2017-10-19T02:25:27.998Z,99.90
2017-10-19T02:27:55.569Z,99.90
2017-10-19T02:30:23.262Z,99.90
2017-10-19T02:32:50.867Z,99.90
2017-10-19T02:35:18.914Z,99.90
2017-10-19T02:37:46.628Z,99.90
2017-10-19T02:40:14.186Z,99.90
2017-10-19T02:42:41.763Z,99.90
2017-10-19T02:45:09.349Z,99.90
2017-10-19T02:47:37.683Z,99.90
2017-10-19T02:50:05.275Z,99.90
2017-10-19T02:52:33.617Z,99.90
2017-10-19T02:55:01.216Z,99.90
2017-10-19T02:57:29.562Z,99.90
2017-10-19T02:59:57.320Z,99.90
2017-10-19T03:02:24.889Z,99.90
2017-10-19T03:04:52.491Z,99.90
2017-10-19T03:07:20.063Z,99.90
2017-10-19T03:09:47.668Z,99.90
2017-10-19T03:12:15.271Z,99.90
2017-10-19T03:14:42.839Z,99.90
2017-10-19T03:17:10.634Z,99.90
2017-10-19T03:19:38.232Z,99.90
2017-10-19T03:22:06.567Z,99.90
2017-10-19T03:24:34.167Z,99.90
2017-10-19T03:27:02.627Z,99.90
2017-10-19T03:29:30.223Z,99.90
2017-10-19T03:31:57.787Z,99.90
2017-10-19T03:34:25.411Z,99.90
2017-10-19T03:36:53.746Z,99.90
2017-10-19T03:39:21.339Z,99.90
2017-10-19T03:41:49.679Z,99.90
2017-10-19T03:44:17.281Z,99.90
2017-10-19T03:46:45.646Z,99.90
2017-10-19T03:49:13.246Z,99.90
2017-10-19T03:51:40.851Z,99.90
2017-10-19T03:54:08.434Z,99.90
2017-10-19T03:56:36.762Z,99.90
2017-10-19T03:59:04.357Z,99.90
2017-10-19T04:01:31.932Z,99.90
2017-10-19T04:04:00.407Z,99.90
2017-10-19T04:06:28.795Z,99.90
2017-10-19T04:08:57.126Z,99.90
2017-10-19T04:11:24.734Z,99.90
2017-10-19T04:13:53.136Z,99.90
2017-10-19T04:16:20.711Z,99.90
2017-10-19T04:18:48.427Z,99.90
2017-10-19T04:21:16.794Z,99.90
2017-10-19T04:23:44.387Z,99.90
2017-10-19T04:26:12.103Z,99.90
2017-10-19T04:28:39.673Z,99.90
2017-10-19T04:31:07.259Z,99.90
2017-10-19T04:33:34.964Z,99.90
2017-10-19T04:36:02.563Z,99.90
2017-10-19T04:38:31.005Z,99.90
2017-10-19T04:40:58.635Z,99.90
2017-10-19T04:43:26.226Z,99.90
2017-10-19T04:45:53.893Z,99.90
2017-10-19T04:48:21.490Z,99.90
2017-10-19T04:50:50.039Z,99.90
2017-10-19T04:53:17.631Z,99.90
2017-10-19T04:55:46.927Z,99.90
2017-10-19T04:58:15.256Z,99.90
2017-10-19T05:00:42.872Z,99.90
2017-10-19T05:03:10.435Z,99.90
2017-10-19T05:05:38.024Z,99.90
2017-10-19T05:08:05.616Z,99.90
2017-10-19T05:10:33.214Z,99.90
2017-10-19T05:13:00.845Z,99.90
2017-10-19T05:15:29.167Z,99.90
2017-10-19T05:17:56.765Z,99.90
2017-10-19T05:20:24.339Z,99.90
2017-10-19T05:22:52.711Z,99.90
2017-10-19T05:25:20.291Z,99.90
2017-10-19T05:27:47.918Z,99.90
2017-10-19T05:30:15.503Z,99.90
2017-10-19T05:32:43.844Z,99.90
2017-10-19T05:35:11.523Z,99.90
2017-10-19T05:37:39.059Z,99.90
2017-10-19T05:40:07.599Z,99.90
2017-10-19T05:42:35.167Z,99.90
2017-10-19T05:45:02.772Z,99.90
2017-10-19T05:47:30.352Z,99.90
2017-10-19T05:49:58.814Z,99.90
2017-10-19T05:52:26.386Z,99.90
2017-10-19T05:54:54.768Z,99.90
2017-10-19T05:57:23.127Z,99.90
2017-10-19T05:59:50.701Z,99.90
2017-10-19T06:02:19.059Z,99.90
2017-10-19T06:04:46.633Z,99.90
2017-10-19T06:07:15.012Z,99.90
2017-10-19T06:09:43.380Z,99.90
2017-10-19T06:12:11.909Z,99.90
2017-10-19T06:14:39.499Z,99.90
2017-10-19T06:17:07.143Z,99.90
2017-10-19T06:19:34.707Z,99.90
2017-10-19T06:22:02.311Z,99.90
2017-10-19T06:24:30.654Z,99.90
2017-10-19T06:26:58.281Z,99.90
2017-10-19T06:29:25.859Z,99.90
2017-10-19T06:31:53.435Z,99.90
2017-10-19T06:34:21.031Z,99.90
2017-10-19T06:36:49.368Z,99.90
2017-10-19T06:39:16.963Z,99.90
2017-10-19T06:41:45.299Z,99.90
2017-10-19T06:44:12.985Z,99.90
2017-10-19T06:46:40.555Z,99.90
2017-10-19T06:49:08.921Z,99.90
2017-10-19T06:51:36.532Z,99.90
2017-10-19T06:54:04.099Z,99.90
2017-10-19T06:56:31.707Z,99.90
2017-10-19T06:59:00.035Z,99.90
2017-10-19T07:01:27.643Z,99.90
2017-10-19T07:03:55.995Z,99.90
2017-10-19T07:06:23.621Z,99.90
2017-10-19T07:08:51.195Z,99.90
2017-10-19T07:11:18.804Z,99.90
2017-10-19T07:13:47.139Z,99.90
2017-10-19T07:16:14.792Z,99.90
2017-10-19T07:18:42.487Z,99.90
2017-10-19T07:21:10.072Z,99.90
2017-10-19T07:23:38.431Z,99.90
2017-10-19T07:26:06.788Z,99.90
2017-10-19T07:28:34.413Z,99.90
2017-10-19T07:31:01.988Z,99.90
2017-10-19T07:33:29.583Z,99.90
2017-10-19T07:35:57.151Z,99.90
2017-10-19T07:38:25.516Z,99.90
2017-10-19T07:40:53.185Z,99.90
2017-10-19T07:43:21.540Z,99.90
2017-10-19T07:45:49.131Z,99.90
2017-10-19T07:48:17.464Z,99.90
2017-10-19T07:50:45.068Z,99.90
2017-10-19T07:53:13.399Z,99.90
2017-10-19T07:55:40.995Z,99.90
2017-10-19T07:58:09.340Z,99.90
2017-10-19T08:00:36.941Z,99.90
2017-10-19T08:03:05.442Z,99.90
2017-10-19T08:05:33.091Z,99.90
2017-10-19T08:08:00.761Z,99.90
2017-10-19T08:10:28.360Z,99.90
2017-10-19T08:12:56.008Z,99.90
2017-10-19T08:15:23.580Z,99.90
2017-10-19T08:17:51.154Z,99.90
2017-10-19T08:20:18.862Z,99.90
2017-10-19T08:22:46.433Z,99.90
2017-10-19T08:25:14.031Z,99.90
2017-10-19T08:27:42.375Z,99.90
2017-10-19T08:30:09.967Z,99.90
2017-10-19T08:32:37.556Z,99.90
2017-10-19T08:35:05.152Z,99.90
2017-10-19T08:37:32.815Z,99.90
2017-10-19T08:40:00.411Z,99.90
2017-10-19T08:42:28.010Z,99.90
2017-10-19T08:44:55.602Z,99.90
2017-10-19T08:47:23.183Z,99.90
2017-10-19T08:49:50.781Z,99.90
2017-10-19T08:52:18.411Z,99.90
2017-10-19T08:54:46.747Z,99.90
2017-10-19T08:57:14.371Z,99.90
2017-10-19T08:59:41.936Z,99.90
2017-10-19T09:02:09.534Z,99.90
2017-10-19T09:04:37.119Z,99.90
2017-10-19T09:07:04.724Z,99.90
2017-10-19T09:09:32.297Z,99.90
2017-10-19T09:11:59.883Z,99.90
2017-10-19T09:14:27.623Z,99.90
2017-10-19T09:16:55.199Z,99.90
2017-10-19T09:19:22.804Z,99.90
2017-10-19T09:21:50.367Z,99.90
2017-10-19T09:24:17.983Z,99.90
2017-10-19T09:26:45.554Z,99.90
2017-10-19T09:29:13.928Z,99.90
2017-10-19T09:31:42.304Z,99.90
2017-10-19T09:34:09.945Z,99.90
2017-10-19T09:36:37.549Z,99.90
2017-10-19T09:39:05.111Z,99.90
2017-10-19T09:41:32.728Z,99.90
2017-10-19T09:44:01.839Z,99.90
2017-10-19T09:46:30.224Z,99.90
2017-10-19T09:48:58.580Z,99.90
2017-10-19T09:51:26.164Z,99.90
2017-10-19T09:53:54.695Z,99.90
2017-10-19T09:56:22.329Z,99.90
2017-10-19T09:58:50.021Z,99.90
2017-10-19T10:01:17.583Z,99.90
2017-10-19T10:03:45.199Z,99.90
2017-10-19T10:06:12.835Z,99.90
2017-10-19T10:08:41.223Z,99.90
2017-10-19T10:11:09.562Z,99.90
2017-10-19T10:13:37.899Z,99.90
2017-10-19T10:16:05.506Z,99.90
2017-10-19T10:18:33.855Z,99.90
2017-10-19T10:21:01.464Z,99.90
2017-10-19T10:23:29.799Z,99.90
2017-10-19T10:25:57.398Z,99.90
2017-10-19T10:28:25.748Z,99.90
2017-10-19T10:30:53.377Z,99.90
2017-10-19T10:33:21.136Z,99.90
2017-10-19T10:35:48.736Z,99.90
2017-10-19T10:38:16.344Z,99.90
2017-10-19T10:40:43.925Z,99.90
2017-10-19T10:43:11.530Z,99.90
2017-10-19T10:45:40.025Z,99.90
2017-10-19T10:48:08.545Z,99.90
2017-10-19T10:50:36.115Z,99.90
2017-10-19T10:53:03.736Z,99.90
2017-10-19T10:55:31.292Z,99.90
2017-10-19T10:57:58.880Z,99.90
2017-10-19T11:00:26.446Z,99.90
2017-10-19T11:02:54.013Z,99.90
2017-10-19T11:05:21.654Z,99.90
2017-10-19T11:07:49.240Z,99.90
2017-10-19T11:10:18.523Z,99.90
2017-10-19T11:12:46.144Z,99.90
2017-10-19T11:15:13.727Z,99.90
2017-10-19T11:17:41.315Z,99.90
2017-10-19T11:20:08.895Z,99.90
2017-10-19T11:22:37.367Z,99.90
2017-10-19T11:25:04.937Z,99.90
2017-10-19T11:27:33.314Z,99.90
2017-10-19T11:30:01.680Z,99.90
2017-10-19T11:32:29.251Z,99.90
2017-10-19T11:34:57.656Z,99.90
2017-10-19T11:37:25.263Z,99.90
2017-10-19T11:39:52.862Z,99.90
2017-10-19T11:42:20.464Z,99.90
2017-10-19T11:44:48.079Z,99.90
2017-10-19T11:47:15.659Z,99.90
2017-10-19T11:49:43.272Z,99.90
2017-10-19T11:52:11.686Z,99.90
2017-10-19T11:54:39.442Z,99.90
2017-10-19T11:57:07.055Z,99.90
2017-10-19T11:59:34.619Z,99.90
2017-10-19T12:02:02.212Z,99.90
2017-10-19T12:04:29.788Z,99.90
2017-10-19T12:06:57.383Z,99.90
2017-10-19T12:09:24.944Z,99.90
2017-10-19T12:11:52.512Z,99.90
2017-10-19T12:14:20.106Z,99.90
2017-10-19T12:16:47.705Z,99.90
2017-10-19T12:19:15.336Z,99.90
2017-10-19T12:21:42.928Z,99.90
2017-10-19T12:24:10.600Z,99.90
2017-10-19T12:26:38.197Z,99.90
2017-10-19T12:29:06.520Z,99.90
2017-10-19T12:31:34.120Z,99.90
2017-10-19T12:34:02.471Z,99.90
2017-10-19T12:36:30.072Z,99.90
2017-10-19T12:38:57.668Z,99.90
2017-10-19T12:41:25.291Z,99.90
2017-10-19T12:43:52.891Z,99.90
2017-10-19T12:46:20.468Z,99.90
2017-10-19T12:48:48.088Z,99.90
2017-10-19T12:51:15.856Z,99.90
2017-10-19T12:53:43.432Z,99.90
2017-10-19T12:56:11.030Z,99.90
2017-10-19T12:58:39.389Z,99.90
2017-10-19T13:01:06.964Z,99.90
2017-10-19T13:03:35.443Z,99.90
2017-10-19T13:06:03.806Z,99.90
2017-10-19T13:08:31.518Z,99.90
2017-10-19T13:10:59.104Z,99.90
2017-10-19T13:13:26.710Z,99.90
2017-10-19T13:15:55.119Z,99.90
2017-10-19T13:18:22.699Z,99.90
2017-10-19T13:20:50.358Z,99.90
2017-10-19T13:23:17.934Z,99.90
2017-10-19T13:25:45.538Z,99.90
2017-10-19T13:28:13.167Z,99.90
2017-10-19T13:30:41.556Z,99.90
2017-10-19T13:33:09.894Z,99.90
2017-10-19T13:35:37.556Z,99.90
2017-10-19T13:38:05.157Z,99.90
2017-10-19T13:40:32.707Z,99.90
2017-10-19T13:43:01.071Z,99.90
2017-10-19T13:45:28.795Z,99.90
2017-10-19T13:47:56.436Z,99.90
2017-10-19T13:50:24.024Z,99.90
2017-10-19T13:52:51.643Z,99.90
2017-10-19T13:55:19.207Z,99.90
2017-10-19T13:57:46.908Z,99.90
2017-10-19T14:00:14.524Z,99.90
2017-10-19T14:02:42.092Z,99.90
2017-10-19T14:05:09.671Z,99.90
2017-10-19T14:07:37.256Z,99.90
2017-10-19T14:10:04.835Z,99.90
2017-10-19T14:12:33.212Z,99.90
2017-10-19T14:15:01.675Z,99.30
2017-10-19T14:17:29.281Z,99.30
2017-10-19T14:19:56.895Z,97.50
2017-10-19T14:22:26.007Z,98.20
2017-10-19T14:24:54.364Z,99.90
2017-10-19T14:27:21.951Z,99.90
2017-10-19T14:29:50.311Z,98.20
2017-10-19T14:32:18.642Z,98.60
2017-10-19T14:34:46.251Z,98.50
2017-10-19T14:37:14.581Z,99.90
2017-10-19T14:39:42.179Z,99.90
2017-10-19T14:42:10.587Z,99.90
2017-10-19T14:44:38.192Z,99.90
2017-10-19T14:47:05.762Z,99.90
2017-10-19T14:49:33.372Z,99.90
2017-10-19T14:52:00.992Z,99.90
2017-10-19T14:54:28.596Z,99.90
2017-10-19T14:56:56.161Z,99.70
2017-10-19T14:59:23.750Z,99.60
2017-10-19T15:01:51.341Z,99.90
2017-10-19T15:04:19.704Z,99.50
2017-10-19T15:06:48.068Z,99.90
2017-10-19T15:09:15.667Z,99.90
2017-10-19T15:11:43.251Z,99.90
2017-10-19T15:14:10.815Z,99.90
2017-10-19T15:16:38.408Z,99.90
2017-10-19T15:19:05.984Z,99.90
2017-10-19T15:21:34.345Z,99.90
2017-10-19T15:24:01.951Z,99.90
2017-10-19T15:26:29.647Z,99.90
2017-10-19T15:28:57.254Z,99.90
2017-10-19T15:31:25.619Z,99.90
2017-10-19T15:33:53.963Z,99.90
2017-10-19T15:36:21.575Z,99.90
2017-10-19T15:38:49.213Z,99.90
2017-10-19T15:41:17.660Z,99.90
2017-10-19T15:43:45.252Z,99.90
2017-10-19T15:46:13.590Z,99.90
2017-10-19T15:48:41.164Z,99.90
2017-10-19T15:51:14.545Z,99.90
2017-10-19T15:53:42.176Z,99.90
2017-10-19T15:56:09.796Z,99.90
2017-10-19T15:58:38.164Z,99.90
2017-10-19T16:01:05.731Z,99.90
2017-10-19T16:03:34.265Z,99.90
2017-10-19T16:06:01.965Z,99.90
2017-10-19T16:08:29.605Z,99.90
2017-10-19T16:10:57.204Z,99.90
2017-10-19T16:13:25.541Z,99.90
2017-10-19T16:15:53.145Z,99.90
2017-10-19T16:18:20.747Z,99.90
2017-10-19T16:20:48.339Z,99.90
2017-10-19T16:23:16.683Z,99.90
2017-10-19T16:25:44.287Z,99.90
2017-10-19T16:28:12.632Z,99.90
2017-10-19T16:30:40.235Z,99.90
2017-10-19T16:33:07.817Z,99.90
2017-10-19T16:35:35.411Z,99.90
2017-10-19T16:38:03.103Z,99.90
2017-10-19T16:40:31.490Z,99.90
2017-10-19T16:42:59.232Z,99.90
2017-10-19T16:45:27.631Z,99.90
2017-10-19T16:47:55.240Z,99.90
2017-10-19T16:50:22.828Z,99.90
2017-10-19T16:52:50.423Z,99.90
2017-10-19T16:55:18.008Z,99.90
2017-10-19T16:57:45.703Z,99.90
2017-10-19T17:00:13.308Z,99.90
2017-10-19T17:02:40.890Z,99.90
2017-10-19T17:05:08.496Z,99.90
2017-10-19T17:07:36.844Z,99.90
2017-10-19T17:10:04.453Z,99.90
2017-10-19T17:12:32.033Z,99.90
2017-10-19T17:14:59.619Z,99.90
2017-10-19T17:17:27.458Z,99.90
2017-10-19T17:19:55.087Z,99.90
2017-10-19T17:22:22.764Z,99.90
2017-10-19T17:24:50.543Z,99.90
2017-10-19T17:27:18.311Z,99.90
2017-10-19T17:29:46.010Z,99.90
2017-10-19T17:32:13.836Z,99.90
2017-10-19T17:34:43.014Z,99.90
2017-10-19T17:37:10.704Z,99.90
2017-10-19T17:39:38.330Z,99.90
2017-10-19T17:42:05.994Z,99.90
2017-10-19T17:44:33.631Z,99.90
2017-10-19T17:47:01.305Z,99.90
2017-10-19T17:49:29.016Z,99.90
2017-10-19T17:51:57.570Z,99.90
2017-10-19T17:54:25.416Z,99.90
2017-10-19T17:56:53.310Z,99.90
2017-10-19T17:59:21.065Z,99.90
2017-10-19T18:01:48.808Z,99.90
2017-10-19T18:04:16.571Z,99.90
2017-10-19T18:06:44.349Z,99.90
2017-10-19T18:09:12.014Z,99.90
2017-10-19T18:11:39.735Z,99.90
2017-10-19T18:14:07.354Z,99.90
2017-10-19T18:16:35.044Z,99.90
2017-10-19T18:19:03.482Z,99.90
2017-10-19T18:21:31.200Z,99.90
2017-10-19T18:23:58.869Z,99.90
2017-10-19T18:26:26.555Z,99.90
2017-10-19T18:28:54.209Z,99.90
2017-10-19T18:31:21.847Z,99.90
2017-10-19T18:36:26.499Z,99.90
2017-10-19T18:38:54.365Z,99.90
2017-10-19T18:41:22.195Z,99.90
2017-10-19T18:43:50.051Z,99.90
2017-10-19T18:46:17.959Z,99.90
2017-10-19T18:48:45.930Z,99.90
2017-10-19T18:51:13.997Z,99.90
2017-10-19T18:53:42.072Z,99.90
2017-10-19T18:56:10.345Z,99.90
2017-10-19T18:58:38.310Z,99.90
2017-10-19T19:01:06.389Z,99.90
2017-10-19T19:03:34.352Z,99.90
2017-10-19T19:06:02.522Z,99.90
2017-10-19T19:08:30.588Z,99.90
2017-10-19T19:10:58.761Z,99.90
2017-10-19T19:13:26.833Z,99.90
2017-10-19T19:15:54.842Z,99.90
2017-10-19T19:18:22.775Z,99.90
2017-10-19T19:20:50.634Z,99.90
2017-10-19T19:23:18.602Z,99.90
2017-10-19T19:25:46.633Z,99.90
2017-10-19T19:28:14.641Z,99.90
2017-10-19T19:30:42.605Z,99.90
2017-10-19T19:33:10.582Z,99.90
2017-10-19T19:35:38.642Z,99.90
2017-10-19T19:38:06.616Z,99.90
2017-10-19T19:40:35.601Z,99.90
2017-10-19T19:43:03.569Z,99.90
2017-10-19T19:45:31.638Z,99.90
2017-10-19T19:47:59.708Z,99.90
2017-10-19T19:50:27.678Z,99.90
2017-10-19T19:52:55.746Z,99.90
2017-10-19T19:55:25.249Z,99.90
2017-10-19T19:57:54.038Z,99.90
2017-10-19T20:00:22.728Z,99.90
2017-10-19T20:02:50.792Z,99.90
2017-10-19T20:05:18.759Z,99.90
2017-10-19T20:07:46.624Z,99.90
2017-10-19T20:10:14.694Z,99.90
2017-10-19T20:12:42.866Z,99.90
2017-10-19T20:15:10.937Z,99.90
2017-10-19T20:17:39.724Z,99.90
2017-10-19T20:20:07.692Z,99.90
2017-10-19T20:22:35.657Z,99.90
2017-10-19T20:25:03.525Z,99.90
2017-10-19T20:27:31.315Z,99.90
2017-10-19T20:29:58.935Z,99.90
2017-10-19T20:32:26.540Z,99.90
2017-10-19T20:34:54.156Z,99.90
2017-10-19T20:37:21.728Z,99.90
2017-10-19T20:39:49.347Z,99.90
2017-10-19T20:42:17.709Z,99.90
2017-10-19T20:44:45.340Z,99.90
2017-10-19T20:47:12.944Z,99.90
2017-10-19T20:49:41.307Z,99.90
2017-10-19T20:52:08.947Z,99.90
2017-10-19T20:54:36.696Z,99.90
2017-10-19T20:57:04.279Z,99.90
2017-10-19T20:59:32.628Z,99.90
2017-10-19T21:02:00.235Z,99.90
2017-10-19T21:04:28.719Z,99.90
2017-10-19T21:06:57.065Z,99.90
2017-10-19T21:09:24.686Z,99.90
2017-10-19T21:11:52.309Z,99.90
2017-10-19T21:14:19.870Z,99.90
2017-10-19T21:16:48.232Z,99.90
2017-10-19T21:19:15.870Z,99.90
2017-10-19T21:21:43.443Z,99.90
2017-10-19T21:24:11.792Z,99.90
2017-10-19T21:26:39.421Z,99.90
2017-10-19T21:29:06.990Z,99.90
2017-10-19T21:31:34.591Z,99.90
2017-10-19T21:34:02.187Z,99.90
2017-10-19T21:36:30.661Z,99.90
2017-10-19T21:38:59.035Z,99.90
2017-10-19T21:41:27.372Z,99.90
2017-10-19T21:43:54.985Z,99.90
2017-10-19T21:46:23.369Z,99.90
2017-10-19T21:48:50.943Z,99.90
2017-10-19T21:51:18.533Z,99.90
2017-10-19T21:53:46.096Z,99.90
2017-10-19T21:56:13.688Z,99.90
2017-10-19T21:58:42.096Z,99.90
2017-10-19T22:01:09.700Z,99.90
2017-10-19T22:03:38.041Z,99.90
2017-10-19T22:06:05.636Z,99.90
2017-10-19T22:08:33.269Z,99.90
2017-10-19T22:11:00.876Z,99.90
2017-10-19T22:13:29.244Z,99.90
2017-10-19T22:15:56.840Z,99.90
2017-10-19T22:18:24.614Z,99.90
2017-10-19T22:20:52.183Z,99.90
2017-10-19T22:23:19.787Z,99.90
2017-10-19T22:25:48.156Z,99.90
2017-10-19T22:28:15.763Z,99.90
2017-10-19T22:30:43.379Z,99.90
2017-10-19T22:33:11.739Z,99.90
2017-10-19T22:35:40.843Z,99.90
2017-10-19T22:38:08.454Z,99.90
2017-10-19T22:40:36.028Z,99.90
2017-10-19T22:43:03.599Z,99.90
2017-10-19T22:45:31.187Z,99.90
2017-10-19T22:47:59.677Z,99.90
2017-10-19T22:50:28.052Z,99.90
2017-10-19T22:52:56.409Z,99.90
2017-10-19T22:55:25.527Z,99.90
2017-10-19T22:57:53.872Z,99.90
2017-10-19T23:00:21.466Z,99.90
2017-10-19T23:02:49.032Z,99.90
2017-10-19T23:05:16.635Z,99.90
2017-10-19T23:07:44.204Z,99.90
2017-10-19T23:10:11.775Z,99.90
2017-10-19T23:12:39.434Z,99.90
2017-10-19T23:15:07.709Z,99.90
2017-10-19T23:17:35.539Z,99.90
2017-10-19T23:20:03.144Z,99.90
2017-10-19T23:22:31.547Z,99.90
2017-10-19T23:24:59.195Z,99.90
2017-10-19T23:27:27.524Z,99.90
2017-10-19T23:29:55.108Z,99.90
2017-10-19T23:32:22.675Z,99.90
2017-10-19T23:34:51.039Z,99.90
2017-10-19T23:37:18.648Z,99.90
2017-10-19T23:39:46.207Z,99.90
2017-10-19T23:42:13.888Z,99.90
2017-10-19T23:44:41.448Z,99.90
2017-10-19T23:47:09.051Z,99.90
2017-10-19T23:49:37.383Z,99.90
2017-10-19T23:52:04.980Z,99.90
2017-10-19T23:54:32.543Z,99.90
2017-10-19T23:57:00.905Z,99.90
2017-10-19T23:59:30.009Z,99.90
